This is the latest recevied weather packets stored in our database for station/object KC9Q. If no packets are shown the sender has not sent any weather packets the latest 10 day(s).
| Time | Temp. | Humidity | Pressure | Rain* | Wind** | Luminosity | Snow |
|---|---|---|---|---|---|---|---|
| 1777432803 | 17.22° C | 98% | 1010.3 hPa | 16.26 mm | - | 0 W/m² | - |
| 1777432498 | 17.22° C | 97% | 1010.8 hPa | 10.16 mm | - | 0 W/m² | - |
| 1777432195 | 17.22° C | 97% | 1011.5 hPa | 3.05 mm | - | 0 W/m² | - |
| 1777431893 | 17.22° C | 97% | 1011.5 hPa | 1.27 mm | - | 0 W/m² | - |
| 1777431590 | 17.22° C | 97% | 1011.6 hPa | 1.27 mm | - | 0 W/m² | - |
| 1777431286 | 17.22° C | 97% | 1011.6 hPa | 1.78 mm | - | 0 W/m² | - |
| 1777430982 | 17.22° C | 96% | 1011.7 hPa | 1.78 mm | - | 0 W/m² | - |
| 1777430678 | 17.22° C | 96% | 1011.9 hPa | 0.51 mm | - | 0 W/m² | - |
| 1777430374 | 17.22° C | 96% | 1012 hPa | 0.51 mm | - | 0 W/m² | - |
| 1777430069 | 17.22° C | 95% | 1011.8 hPa | 0 mm | - | 0 W/m² | - |
| 1777429766 | 17.22° C | 95% | 1012 hPa | 0 mm | - | 0 W/m² | - |
| 1777429462 | 17.22° C | 95% | 1012.1 hPa | 0 mm | - | 0 W/m² | - |
| 1777429158 | 17.22° C | 95% | 1011.9 hPa | 0 mm | - | 0 W/m² | - |
| 1777428854 | 16.67° C | 96% | 1011.8 hPa | 0 mm | - | 0 W/m² | - |
| 1777428550 | 16.67° C | 96% | 1011.4 hPa | 0 mm | - | 0 W/m² | - |
| 1777428246 | 16.67° C | 97% | 1011.2 hPa | 0 mm | - | 0 W/m² | - |
| 1777427941 | 16.67° C | 97% | 1011.1 hPa | 0 mm | - | 0 W/m² | - |
| 1777427638 | 16.67° C | 97% | 1011.3 hPa | 0 mm | - | 0 W/m² | - |
| 1777427335 | 16.67° C | 98% | 1011.1 hPa | 0 mm | - | 0 W/m² | - |
| 1777427031 | 16.67° C | 98% | 1010.5 hPa | 0 mm | - | 0 W/m² | - |
| 1777426729 | 16.67° C | 98% | 1010.4 hPa | 0 mm | - | 0 W/m² | - |
| 1777426426 | 16.67° C | 98% | 1010.9 hPa | 0 mm | - | 0 W/m² | - |
| 1777426122 | 17.22° C | 98% | 1010.8 hPa | 0 mm | - | 0 W/m² | - |
| 1777425822 | 17.22° C | 98% | 1011 hPa | 0 mm | - | 0 W/m² | - |
| 1777425517 | 17.22° C | 97% | 1010.4 hPa | 0 mm | - | 0 W/m² | - |
* Rain latest hour (hover to see other rain measurements)
** Current wind speed in m/s (hover to see current wind gust speed)